地図

経路データ

SID SEASON NUMBER BASIN SUBBASIN NAME ISO_TIME NATURE LAT LON WMO_WIND WMO_PRES WMO_AGENCY TRACK_TYPE DIST2LAND LANDFALL IFLAG USA_AGENCY USA_ATCF_ID USA_LAT USA_LON USA_RECORD USA_STATUS USA_WIND USA_PRES USA_SSHS USA_R34_NE USA_R34_SE USA_R34_SW USA_R34_NW USA_R50_NE USA_R50_SE USA_R50_SW USA_R50_NW USA_R64_NE USA_R64_SE USA_R64_SW USA_R64_NW USA_POCI USA_ROCI USA_RMW USA_EYE TOKYO_LAT TOKYO_LON TOKYO_GRADE TOKYO_WIND TOKYO_PRES TOKYO_R50_DIR TOKYO_R50_LONG TOKYO_R50_SHORT TOKYO_R30_DIR TOKYO_R30_LONG TOKYO_R30_SHORT TOKYO_LAND CMA_LAT CMA_LON CMA_CAT CMA_WIND CMA_PRES HKO_LAT HKO_LON HKO_CAT HKO_WIND HKO_PRES NEWDELHI_LAT NEWDELHI_LON NEWDELHI_GRADE NEWDELHI_WIND NEWDELHI_PRES NEWDELHI_CI NEWDELHI_DP NEWDELHI_POCI REUNION_LAT REUNION_LON REUNION_TYPE REUNION_WIND REUNION_PRES REUNION_TNUM REUNION_CI REUNION_RMW REUNION_R34_NE REUNION_R34_SE REUNION_R34_SW REUNION_R34_NW REUNION_R50_NE REUNION_R50_SE REUNION_R50_SW REUNION_R50_NW REUNION_R64_NE REUNION_R64_SE REUNION_R64_SW REUNION_R64_NW BOM_LAT BOM_LON BOM_TYPE BOM_WIND BOM_PRES BOM_TNUM BOM_CI BOM_RMW BOM_R34_NE BOM_R34_SE BOM_R34_SW BOM_R34_NW BOM_R50_NE BOM_R50_SE BOM_R50_SW BOM_R50_NW BOM_R64_NE BOM_R64_SE BOM_R64_SW BOM_R64_NW BOM_ROCI BOM_POCI BOM_EYE BOM_POS_METHOD BOM_PRES_METHOD NADI_LAT NADI_LON NADI_CAT NADI_WIND NADI_PRES WELLINGTON_LAT WELLINGTON_LON WELLINGTON_WIND WELLINGTON_PRES DS824_LAT DS824_LON DS824_STAGE DS824_WIND DS824_PRES TD9636_LAT TD9636_LON TD9636_STAGE TD9636_WIND TD9636_PRES TD9635_LAT TD9635_LON TD9635_WIND TD9635_PRES TD9635_ROCI NEUMANN_LAT NEUMANN_LON NEUMANN_CLASS NEUMANN_WIND NEUMANN_PRES MLC_LAT MLC_LON MLC_CLASS MLC_WIND MLC_PRES USA_GUST BOM_GUST BOM_GUST_PER REUNION_GUST REUNION_GUST_PER USA_SEAHGT USA_SEARAD_NE USA_SEARAD_SE USA_SEARAD_SW USA_SEARAD_NW STORM_SPEED STORM_DIR
1958264N17308 1958 89 NA NA HELENE 1958-09-21 06:00:00 TS 17.0000 -52.0000 25 hurdat_atl main 1200 1136 O_____________ hurdat_atl AL081958 17.0000 -52.0000 TD 25 -1 22 285
1958264N17308 1958 89 NA NA HELENE 1958-09-21 09:00:00 TS 17.2938 -53.1093 main 1127 1072 P_____________ AL081958 17.2938 -53.1093 TD 25 -1 22 286
1958264N17308 1958 89 NA NA HELENE 1958-09-21 12:00:00 TS 17.6000 -54.2000 25 hurdat_atl main 1064 1019 O_____________ hurdat_atl AL081958 17.6000 -54.2000 TD 25 -1 21 287
1958264N17308 1958 89 NA NA HELENE 1958-09-21 15:00:00 TS 17.9343 -55.2580 main 1013 991 P_____________ AL081958 17.9343 -55.2580 TD 25 -1 21 289
1958264N17308 1958 89 NA NA HELENE 1958-09-21 18:00:00 TS 18.3000 -56.3000 25 hurdat_atl main 981 875 O_____________ hurdat_atl AL081958 18.3000 -56.3000 TD 25 -1 21 290
1958264N17308 1958 89 NA NA HELENE 1958-09-21 21:00:00 TS 18.6770 -57.3581 main 865 771 P_____________ AL081958 18.6770 -57.3581 TD 25 -1 21 292
1958264N17308 1958 89 NA NA HELENE 1958-09-22 00:00:00 TS 19.1000 -58.4000 25 hurdat_atl main 762 665 O_____________ hurdat_atl AL081958 19.1000 -58.4000 TD 25 -1 21 295
1958264N17308 1958 89 NA NA HELENE 1958-09-22 03:00:00 TS 19.5843 -59.4079 main 665 584 P_____________ AL081958 19.5843 -59.4079 TD 25 -1 21 298
1958264N17308 1958 89 NA NA HELENE 1958-09-22 06:00:00 TS 20.1000 -60.4000 25 hurdat_atl main 578 504 O_____________ hurdat_atl AL081958 20.1000 -60.4000 TD 25 -1 22 299
1958264N17308 1958 89 NA NA HELENE 1958-09-22 09:00:00 TS 20.6148 -61.4226 main 504 451 P_____________ AL081958 20.6148 -61.4226 TD 25 -1 21 298
1958264N17308 1958 89 NA NA HELENE 1958-09-22 12:00:00 TS 21.1000 -62.4000 25 hurdat_atl main 450 421 O_____________ hurdat_atl AL081958 21.1000 -62.4000 TD 25 -1 20 298
1958264N17308 1958 89 NA NA HELENE 1958-09-22 15:00:00 TS 21.5373 -63.3177 main 421 414 P_____________ AL081958 21.5373 -63.3177 TD 27 -1 18 297
1958264N17308 1958 89 NA NA HELENE 1958-09-22 18:00:00 TS 21.9000 -64.1000 30 1013 hurdat_atl main 421 417 O_____________ hurdat_atl AL081958 21.9000 -64.1000 TD 30 1013 -1 14 296
1958264N17308 1958 89 NA NA HELENE 1958-09-22 21:00:00 TS 22.1643 -64.7033 main 435 431 P_____________ AL081958 22.1643 -64.7033 TD 32 -1 11 296
1958264N17308 1958 89 NA NA HELENE 1958-09-23 00:00:00 TS 22.4000 -65.2000 35 hurdat_atl main 449 448 O_____________ hurdat_atl AL081958 22.4000 -65.2000 TS 35 0 11 300
1958264N17308 1958 89 NA NA HELENE 1958-09-23 03:00:00 TS 22.6998 -65.7076 main 480 480 P_____________ AL081958 22.6998 -65.7076 TS 37 0 11 303
1958264N17308 1958 89 NA NA HELENE 1958-09-23 06:00:00 TS 23.0000 -66.2000 40 hurdat_atl main 514 512 O_____________ hurdat_atl AL081958 23.0000 -66.2000 TS 40 0 11 302
1958264N17308 1958 89 NA NA HELENE 1958-09-23 09:00:00 TS 23.2572 -66.6854 main 522 511 P_____________ AL081958 23.2572 -66.6854 TS 40 0 10 299
1958264N17308 1958 89 NA NA HELENE 1958-09-23 12:00:00 TS 23.5000 -67.2000 40 1003 hurdat_atl main 517 511 O_____________ hurdat_atl AL081958 23.5000 -67.2000 TS 40 1003 0 11 296
1958264N17308 1958 89 NA NA HELENE 1958-09-23 15:00:00 TS 23.7424 -67.7853 main 511 511 P_____________ AL081958 23.7424 -67.7853 TS 42 1001 0 12 294
1958264N17308 1958 89 NA NA HELENE 1958-09-23 18:00:00 TS 24.0000 -68.4000 45 1000 hurdat_atl main 518 515 O_____________ hurdat_atl AL081958 24.0000 -68.4000 TS 45 1000 0 12 295
1958264N17308 1958 89 NA NA HELENE 1958-09-23 21:00:00 TS 24.2624 -69.0080 main 529 514 P_____________ AL081958 24.2624 -69.0080 TS 47 0 12 299
1958264N17308 1958 89 NA NA HELENE 1958-09-24 00:00:00 TS 24.6000 -69.6000 50 hurdat_atl main 515 508 O_____________ hurdat_atl AL081958 24.6000 -69.6000 TS 50 0 13 308
1958264N17308 1958 89 NA NA HELENE 1958-09-24 03:00:00 TS 25.0773 -70.1649 main 521 521 P_____________ AL081958 25.0773 -70.1649 TS 52 0 14 315
1958264N17308 1958 89 NA NA HELENE 1958-09-24 06:00:00 TS 25.6000 -70.7000 55 hurdat_atl main 544 544 O_____________ hurdat_atl AL081958 25.6000 -70.7000 TS 55 0 14 316
1958264N17308 1958 89 NA NA HELENE 1958-09-24 09:00:00 TS 26.0724 -71.2301 main 577 574 P_____________ AL081958 26.0724 -71.2301 TS 57 0 13 315
1958264N17308 1958 89 NA NA HELENE 1958-09-24 12:00:00 TS 26.5000 -71.7000 60 997 hurdat_atl main 606 606 O_____________ hurdat_atl AL081958 26.5000 -71.7000 TS 60 997 0 11 317
1958264N17308 1958 89 NA NA HELENE 1958-09-24 15:00:00 TS 26.8798 -72.0804 main 620 605 P_____________ AL081958 26.8798 -72.0804 TS 60 996 0 9 318
1958264N17308 1958 89 NA NA HELENE 1958-09-24 18:00:00 TS 27.2000 -72.4000 60 995 hurdat_atl main 605 587 O_____________ hurdat_atl AL081958 27.2000 -72.4000 TS 60 995 0 8 316
1958264N17308 1958 89 NA NA HELENE 1958-09-24 21:00:00 TS 27.4574 -72.7153 main 591 576 P_____________ AL081958 27.4574 -72.7153 TS 62 0 7 313
1958264N17308 1958 89 NA NA HELENE 1958-09-25 00:00:00 TS 27.7000 -73.0000 65 hurdat_atl main 576 568 O_____________ hurdat_atl AL081958 27.7000 -73.0000 HU 65 1 7 318
1958264N17308 1958 89 NA NA HELENE 1958-09-25 03:00:00 TS 27.9999 -73.2650 main 568 565 P_____________ AL081958 27.9999 -73.2650 HU 67 1 7 324
1958264N17308 1958 89 NA NA HELENE 1958-09-25 06:00:00 TS 28.3000 -73.5000 70 hurdat_atl main 571 570 O_____________ hurdat_atl AL081958 28.3000 -73.5000 HU 70 1 7 325
1958264N17308 1958 89 NA NA HELENE 1958-09-25 09:00:00 TS 28.5650 -73.7151 main 578 570 P_____________ AL081958 28.5650 -73.7151 HU 70 1 6 325
1958264N17308 1958 89 NA NA HELENE 1958-09-25 12:00:00 TS 28.8000 -73.9000 70 hurdat_atl main 579 579 O_____________ hurdat_atl AL081958 28.8000 -73.9000 HU 70 1 5 327
1958264N17308 1958 89 NA NA HELENE 1958-09-25 15:00:00 TS 29.0149 -74.0427 main 588 581 P_____________ AL081958 29.0149 -74.0427 HU 70 1 5 327
1958264N17308 1958 89 NA NA HELENE 1958-09-25 18:00:00 TS 29.2000 -74.2000 70 982 hurdat_atl main 592 585 O_____________ hurdat_atl AL081958 29.2000 -74.2000 HU 70 982 1 5 317
1958264N17308 1958 89 NA NA HELENE 1958-09-25 21:00:00 TS 29.3649 -74.4200 main 597 574 P_____________ AL081958 29.3649 -74.4200 HU 70 981 1 5 305
1958264N17308 1958 89 NA NA HELENE 1958-09-26 00:00:00 TS 29.5000 -74.7000 70 981 hurdat_atl main 574 547 O_____________ hurdat_atl AL081958 29.5000 -74.7000 HU 70 981 1 6 293
1958264N17308 1958 89 NA NA HELENE 1958-09-26 03:00:00 TS 29.5850 -75.0279 main 547 512 P_____________ AL081958 29.5850 -75.0279 HU 75 977 1 6 288
1958264N17308 1958 89 NA NA HELENE 1958-09-26 06:00:00 TS 29.7000 -75.4000 80 974 hurdat_atl main 512 487 O_____________ hurdat_atl AL081958 29.7000 -75.4000 HU 80 974 1 7 297
1958264N17308 1958 89 NA NA HELENE 1958-09-26 09:00:00 TS 29.9122 -75.7703 main 481 434 P_____________ AL081958 29.9122 -75.7703 HU 87 968 2 9 306
1958264N17308 1958 89 NA NA HELENE 1958-09-26 12:00:00 TS 30.2000 -76.2000 95 963 hurdat_atl main 434 377 O_____________ hurdat_atl AL081958 30.2000 -76.2000 HU 95 963 2 10 307
1958264N17308 1958 89 NA NA HELENE 1958-09-26 15:00:00 TS 30.5351 -76.7349 main 377 306 P_____________ AL081958 30.5351 -76.7349 HU 102 955 3 12 306
1958264N17308 1958 89 NA NA HELENE 1958-09-26 18:00:00 TS 30.9000 -77.3000 110 948 hurdat_atl main 306 250 O_____________ hurdat_atl AL081958 30.9000 -77.3000 HU 110 948 3 12 307
1958264N17308 1958 89 NA NA HELENE 1958-09-26 21:00:00 TS 31.2502 -77.8598 main 236 187 P_____________ AL081958 31.2502 -77.8598 HU 112 945 3 11 309
1958264N17308 1958 89 NA NA HELENE 1958-09-27 00:00:00 TS 31.6000 -78.3000 115 943 hurdat_atl main 187 148 O_____________ hurdat_atl AL081958 31.6000 -78.3000 HU 115 943 4 9 320
1958264N17308 1958 89 NA NA HELENE 1958-09-27 03:00:00 TS 31.9395 -78.5288 main 148 108 P_____________ AL081958 31.9395 -78.5288 HU 120 938 4 7 340
1958264N17308 1958 89 NA NA HELENE 1958-09-27 06:00:00 TS 32.3000 -78.6000 125 933 hurdat_atl main 108 78 O_____________ hurdat_atl AL081958 32.3000 -78.6000 HU 125 933 4 8 356
1958264N17308 1958 89 NA NA HELENE 1958-09-27 09:00:00 TS 32.7000 -78.6000 130 930 hurdat_atl main 78 60 O_____________ hurdat_atl AL081958 32.7000 -78.6000 I HU 130 930 4 8 6
1958264N17308 1958 89 NA NA HELENE 1958-09-27 12:00:00 TS 33.1000 -78.5000 120 938 hurdat_atl main 65 44 O_____________ hurdat_atl AL081958 33.1000 -78.5000 HU 120 938 4 9 24
1958264N17308 1958 89 NA NA HELENE 1958-09-27 15:00:00 TS 33.4995 -78.1757 main 44 21 P_____________ AL081958 33.4995 -78.1757 HU 120 938 4 11 43
1958264N17308 1958 89 NA NA HELENE 1958-09-27 18:00:00 TS 33.9000 -77.6000 120 hurdat_atl main 35 35 I_____________ hurdat_atl AL081958 33.9000 -77.6000 HU 120 938 4 14 54
1958264N17308 1958 89 NA NA HELENE 1958-09-27 21:00:00 TS 34.2998 -76.8395 main 44 22 P_____________ AL081958 34.2998 -76.8395 HU 117 938 4 16 60
1958264N17308 1958 89 NA NA HELENE 1958-09-28 00:00:00 TS 34.7000 -75.9000 115 938 hurdat_atl main 42 42 O_____________ hurdat_atl AL081958 34.7000 -75.9000 HU 115 938 4 18 64
1958264N17308 1958 89 NA NA HELENE 1958-09-28 03:00:00 TS 35.0765 -74.9079 main 91 91 P_____________ AL081958 35.0765 -74.9079 HU 112 944 3 19 65
1958264N17308 1958 89 NA NA HELENE 1958-09-28 06:00:00 TS 35.5000 -73.8000 110 950 hurdat_atl main 156 156 O_____________ hurdat_atl AL081958 35.5000 -73.8000 HU 110 950 3 21 64
1958264N17308 1958 89 NA NA HELENE 1958-09-28 09:00:00 TS 36.0034 -72.6151 main 261 261 P_____________ AL081958 36.0034 -72.6151 HU 105 952 3 23 61
1958264N17308 1958 89 NA NA HELENE 1958-09-28 12:00:00 TS 36.6000 -71.3000 100 955 hurdat_atl main 384 384 O_____________ hurdat_atl AL081958 36.6000 -71.3000 HU 100 955 3 25 61
1958264N17308 1958 89 NA NA HELENE 1958-09-28 15:00:00 TS 37.2313 -69.8555 main 460 433 P_____________ AL081958 37.2313 -69.8555 HU 100 955 3 28 60
1958264N17308 1958 89 NA NA HELENE 1958-09-28 18:00:00 TS 38.0000 -68.3000 100 hurdat_atl main 436 418 I_____________ hurdat_atl AL081958 38.0000 -68.3000 HU 100 956 3 30 57
1958264N17308 1958 89 NA NA HELENE 1958-09-28 21:00:00 TS 38.8812 -66.6097 main 423 400 P_____________ AL081958 38.8812 -66.6097 HU 97 956 3 33 52
1958264N17308 1958 89 NA NA HELENE 1958-09-29 00:00:00 TS 40.0000 -65.0000 95 957 hurdat_atl main 390 277 O_____________ hurdat_atl AL081958 40.0000 -65.0000 HU 95 957 2 34 42
1958264N17308 1958 89 NA NA HELENE 1958-09-29 03:00:00 TS 41.3847 -63.6693 main 267 185 P_____________ AL081958 41.3847 -63.6693 HU 90 2 35 32
1958264N17308 1958 89 NA NA HELENE 1958-09-29 06:00:00 ET 43.0000 -62.5000 85 hurdat_atl main 178 54 O_____________ hurdat_atl AL081958 43.0000 -62.5000 EX 85 -4 37 26
1958264N17308 1958 89 NA NA HELENE 1958-09-29 09:00:00 ET 44.7433 -61.4614 main 45 0 P_____________ AL081958 44.7433 -61.4614 EX 80 -4 39 25
1958264N17308 1958 89 NA NA HELENE 1958-09-29 12:00:00 ET 46.5000 -60.2000 75 hurdat_atl main 13 0 O_____________ hurdat_atl AL081958 46.5000 -60.2000 EX 75 -4 40 33
1958264N17308 1958 89 NA NA HELENE 1958-09-29 15:00:00 ET 48.1140 -58.2697 main 0 0 P_____________ AL081958 48.1140 -58.2697 EX 72 -4 41 43
1958264N17308 1958 89 NA NA HELENE 1958-09-29 18:00:00 ET 49.5000 -56.0000 70 hurdat_atl main 0 0 O_____________ hurdat_atl AL081958 49.5000 -56.0000 EX 70 -4 39 51
1958264N17308 1958 89 NA NA HELENE 1958-09-29 21:00:00 ET 50.5779 -53.6289 main 133 133 P_____________ AL081958 50.5779 -53.6289 EX 67 -4 35 55
1958264N17308 1958 89 NA NA HELENE 1958-09-30 00:00:00 ET 51.5000 -51.5000 65 hurdat_atl main 275 275 O_____________ hurdat_atl AL081958 51.5000 -51.5000 EX 65 -4 30 49
1958264N17308 1958 89 NA NA HELENE 1958-09-30 03:00:00 ET 52.5295 -50.0110 main 377 377 P_____________ AL081958 52.5295 -50.0110 EX 62 -4 26 39
1958264N17308 1958 89 NA NA HELENE 1958-09-30 06:00:00 ET 53.5000 -48.8000 60 hurdat_atl main 461 461 O_____________ hurdat_atl AL081958 53.5000 -48.8000 EX 60 -4 23 40
1958264N17308 1958 89 NA NA HELENE 1958-09-30 09:00:00 ET 54.3034 -47.5227 main 552 552 P_____________ AL081958 54.3034 -47.5227 EX 60 -4 22 47
1958264N17308 1958 89 NA NA HELENE 1958-09-30 12:00:00 ET 55.0000 -46.0000 60 hurdat_atl main 558 487 O_____________ hurdat_atl AL081958 55.0000 -46.0000 EX 60 -4 25 57
1958264N17308 1958 89 NA NA HELENE 1958-09-30 15:00:00 ET 55.6557 -43.8568 main 477 440 P_____________ AL081958 55.6557 -43.8568 EX 60 -4 28 65
1958264N17308 1958 89 NA NA HELENE 1958-09-30 18:00:00 ET 56.2000 -41.5000 60 hurdat_atl main 441 428 O_____________ hurdat_atl AL081958 56.2000 -41.5000 EX 60 -4 27 68
1958264N17308 1958 89 NA NA HELENE 1958-09-30 21:00:00 ET 56.6895 -39.2738 main 435 435 P_____________ AL081958 56.6895 -39.2738 EX 60 -4 24 71
1958264N17308 1958 89 NA NA HELENE 1958-10-01 00:00:00 ET 57.0000 -37.3000 60 hurdat_atl main 478 478 O_____________ hurdat_atl AL081958 57.0000 -37.3000 EX 60 -4 19 78
1958264N17308 1958 89 NA NA HELENE 1958-10-01 03:00:00 ET 57.0922 -35.7676 main 535 535 P_____________ AL081958 57.0922 -35.7676 EX 60 -4 15 90
1958264N17308 1958 89 NA NA HELENE 1958-10-01 06:00:00 ET 57.0000 -34.5000 60 hurdat_atl main 602 602 O_____________ hurdat_atl AL081958 57.0000 -34.5000 EX 60 -4 14 102
1958264N17308 1958 89 NA NA HELENE 1958-10-01 09:00:00 ET 56.8015 -33.1886 main 678 678 P_____________ AL081958 56.8015 -33.1886 EX 62 -4 15 110
1958264N17308 1958 89 NA NA HELENE 1958-10-01 12:00:00 ET 56.5000 -32.0000 65 hurdat_atl main 756 756 O_____________ hurdat_atl AL081958 56.5000 -32.0000 EX 65 -4 13 118
1958264N17308 1958 89 NA NA HELENE 1958-10-01 15:00:00 ET 56.1685 -31.0417 main 825 825 P_____________ AL081958 56.1685 -31.0417 EX 67 -4 13 122
1958264N17308 1958 89 NA NA HELENE 1958-10-01 18:00:00 ET 55.8000 -30.0000 70 hurdat_atl main 901 901 O_____________ hurdat_atl AL081958 55.8000 -30.0000 EX 70 -4 15 119
1958264N17308 1958 89 NA NA HELENE 1958-10-01 21:00:00 ET 55.4197 -28.6539 main 987 981 P_____________ AL081958 55.4197 -28.6539 EX 70 -4 19 115
1958264N17308 1958 89 NA NA HELENE 1958-10-02 00:00:00 ET 55.0000 -27.0000 70 hurdat_atl main 1003 964 O_____________ hurdat_atl AL081958 55.0000 -27.0000 EX 70 -4 23 112
1958264N17308 1958 89 NA NA HELENE 1958-10-02 03:00:00 ET 54.5724 -24.9643 main 958 842 P_____________ AL081958 54.5724 -24.9643 EX 67 -4 25 113
1958264N17308 1958 89 NA NA HELENE 1958-10-02 06:00:00 ET 54.0000 -23.0000 65 hurdat_atl main 835 753 O_____________ hurdat_atl AL081958 54.0000 -23.0000 EX 65 -4 24 125
1958264N17308 1958 89 NA NA HELENE 1958-10-02 09:00:00 ET 53.1916 -21.5631 main 753 677 P_____________ AL081958 53.1916 -21.5631 EX 60 -4 23 139
1958264N17308 1958 89 NA NA HELENE 1958-10-02 12:00:00 ET 52.3000 -20.5000 55 hurdat_atl main 677 641 O_____________ hurdat_atl AL081958 52.3000 -20.5000 EX 55 -4 21 150
1958264N17308 1958 89 NA NA HELENE 1958-10-02 15:00:00 ET 51.3451 -19.7888 main 643 613 P_____________ AL081958 51.3451 -19.7888 EX 52 -4 18 150
1958264N17308 1958 89 NA NA HELENE 1958-10-02 18:00:00 ET 50.7000 -19.0000 50 hurdat_atl main 606 519 O_____________ hurdat_atl AL081958 50.7000 -19.0000 EX 50 -4 15 114
1958264N17308 1958 89 NA NA HELENE 1958-10-02 21:00:00 ET 50.7189 -17.5627 main 513 403 P_____________ AL081958 50.7189 -17.5627 EX 50 -4 19 81
1958264N17308 1958 89 NA NA HELENE 1958-10-03 00:00:00 ET 51.0000 -16.0000 50 hurdat_atl main 396 313 O_____________ hurdat_atl AL081958 51.0000 -16.0000 EX 50 -4 18 77
1958264N17308 1958 89 NA NA HELENE 1958-10-03 03:00:00 ET 51.1215 -14.7499 main 306 243 P_____________ AL081958 51.1215 -14.7499 EX 47 -4 14 82
1958264N17308 1958 89 NA NA HELENE 1958-10-03 06:00:00 ET 51.2000 -13.8000 45 hurdat_atl main 243 210 O_____________ hurdat_atl AL081958 51.2000 -13.8000 EX 45 -4 10 85
1958264N17308 1958 89 NA NA HELENE 1958-10-03 09:00:00 ET 51.2128 -13.2317 main 203 178 P_____________ AL081958 51.2128 -13.2317 EX 42 -4 6 90
1958264N17308 1958 89 NA NA HELENE 1958-10-03 12:00:00 ET 51.2000 -12.8000 40 hurdat_atl main 178 146 O_____________ hurdat_atl AL081958 51.2000 -12.8000 EX 40 -4 6 92
1958264N17308 1958 89 NA NA HELENE 1958-10-03 15:00:00 ET 51.1968 -12.2998 main 146 106 P_____________ AL081958 51.1968 -12.2998 EX 40 -4 8 90
1958264N17308 1958 89 NA NA HELENE 1958-10-03 18:00:00 ET 51.2000 -11.5000 40 hurdat_atl main 100 35 O_____________ hurdat_atl AL081958 51.2000 -11.5000 EX 40 -4 14 90
1958264N17308 1958 89 NA NA HELENE 1958-10-03 21:00:00 ET 51.2020 -10.1272 main 30 22 P_____________ AL081958 51.2020 -10.1272 EX 37 -4 19 90
1958264N17308 1958 89 NA NA HELENE 1958-10-04 00:00:00 ET 51.2000 -8.50000 35 hurdat_atl main 43 43 O_____________ hurdat_atl AL081958 51.2000 -8.50000 EX 35 -4 20 90
1958264N17308 1958 89 NA NA HELENE 1958-10-04 03:00:00 ET 51.2014 -6.95789 main 91 59 P_____________ AL081958 51.2014 -6.95789 EX 35 -4 19 90
1958264N17308 1958 89 NA NA HELENE 1958-10-04 06:00:00 ET 51.2000 -5.50000 35 hurdat_atl main 57 O_____________ hurdat_atl AL081958 51.2000 -5.50000 EX 35 -4 18 90

IBTrACS Databaseについて

本データベースは、米国NOAAが公開する1842年以降の世界の熱帯低気圧のベストトラックデータアーカイブInternational Best Track Archive for Climate Stewardship (IBTrACS)を、ウェブで閲覧しやすい形式に変換したものです。

最終更新日:2021-10-25